Flight Track Log - Related Links

Times and Time Zones

All times are in EDT time to prevent confusion due to time zone crossing. See the N32JL flight status page for this flight to view local times or setup timezone preferences in your user account.

Time Position Orientation Groundspeed Altitude Reporting Facility
EDT Latitude Longitude Course Direction KTS MPH feet Rate Location/Type
Sat 01:48:17 PM 30.9150 -82.0353 331° Northwest 107 123 8,500  Level Jacksonville Center
Sat 01:49:17 PM 30.9381 -82.0522 328° Northwest 102 117 8,500  Level Jacksonville Center
Sat 01:50:17 PM 30.9653 -82.0689 332° Northwest 102 117 8,500  Level Jacksonville Center
Sat 01:51:17 PM 30.9906 -82.0856 331° Northwest 102 117 8,500  Level Jacksonville Center
Sat 01:52:17 PM 31.0178 -82.1047 329° Northwest 102 117 8,500  Level Jacksonville Center
Sat 01:53:00 PM 30.9206 -81.9740 331° Northwest  Level Estimated
Sat 01:53:17 PM 31.0431 -82.1167 338° Northwest 102 117 8,500  Level Jacksonville Center
Sat 01:54:17 PM 31.0661 -82.1358 325° Northwest 102 117 8,500  Level Jacksonville Center
Sat 01:55:17 PM 31.0911 -82.1503 334° Northwest 102 117 8,500  Level Jacksonville Center
Sat 01:56:17 PM 31.1164 -82.1669 331° Northwest 102 117 8,500  Level Jacksonville Center
Sat 01:57:17 PM 31.1394 -82.1839 328° Northwest 102 117 8,500  Level Jacksonville Center
Sat 01:58:17 PM 31.1667 -82.2006 332° Northwest 102 117 8,500  Level Jacksonville Center
Sat 01:59:17 PM 31.1917 -82.2175 330° Northwest 102 117 8,500  Level Jacksonville Center
Sat 02:00:17 PM 31.2169 -82.2342 331° Northwest 102 117 8,500  Level Jacksonville Center
Sat 02:01:17 PM 31.2442 -82.2511 332° Northwest 102 117 8,500  Level Jacksonville Center
Sat 02:02:17 PM 31.2692 -82.2678 330° Northwest 102 117 8,500  Level Jacksonville Center
Sat 02:03:17 PM 31.2986 -82.2775 344° North 97 112 8,500  Level Jacksonville Center
Sat 02:04:17 PM 31.3278 -82.2772 360° North 97 112 8,500  Level Jacksonville Center
Sat 02:05:17 PM 31.3633 -82.2747 North 102 117 8,500  Level Jacksonville Center
Sat 02:06:17 PM 31.3906 -82.2817 348° North 107 123 8,500  Level Jacksonville Center
Sat 02:07:17 PM 31.4156 -82.2914 342° North 107 123 8,500  Level Jacksonville Center
Sat 02:08:17 PM 31.4447 -82.3033 341° North 107 123 8,500  Level Jacksonville Center
Sat 02:09:17 PM 31.4761 -82.3128 346° North 107 123 8,500  Level Jacksonville Center
Sat 02:10:17 PM 31.5075 -82.3247 342° North 107 123 8,500  Level Jacksonville Center
Sat 02:11:17 PM 31.5369 -82.3367 341° North 112 129 8,500  Level Jacksonville Center
Sat 02:12:17 PM 31.5642 -82.3464 343° North 106 122 8,500  Level Jacksonville Center
Sat 02:13:17 PM 31.5933 -82.3583 341° North 106 122 8,500  Level Jacksonville Center
Sat 02:14:17 PM 31.6247 -82.3681 345° North 111 128 8,500  Level Jacksonville Center
Sat 02:15:17 PM 31.6436 -82.3897 316° Northwest 105 121 8,500  Level Jacksonville Center
Sat 02:16:17 PM 31.6519 -82.4217 287° West 100 115 8,500  Level Jacksonville Center
Sat 02:17:17 PM 31.6606 -82.4508 289° West 100 115 8,500  Level Jacksonville Center
Sat 02:18:17 PM 31.6753 -82.4800 301° West 100 115 8,500  Level Jacksonville Center
Sat 02:19:17 PM 31.6878 -82.5069 299° West 95 109 8,500  Level Jacksonville Center
Sat 02:20:17 PM 31.7025 -82.5361 301° West 95 109 8,500  Level Jacksonville Center
Sat 02:21:17 PM 31.7214 -82.5628 310° West 95 109 8,500  Level Jacksonville Center
Sat 02:22:17 PM 31.7444 -82.5822 324° Northwest 100 115 8,500  Level Jacksonville Center
Sat 02:23:17 PM 31.7653 -82.5994 325° Northwest 107 123 8,500  Level Jacksonville Center
Sat 02:24:17 PM 31.7967 -82.6114 342° North 107 123 8,500  Level Jacksonville Center
Sat 02:25:17 PM 31.8217 -82.6333 323° Northwest 112 129 8,500  Level Jacksonville Center
Sat 02:26:17 PM 31.8511 -82.6506 334° Northwest 112 129 8,500  Level Jacksonville Center
Sat 02:27:17 PM 31.8761 -82.6650 334° Northwest 107 123 8,500  Level Jacksonville Center
Sat 02:28:17 PM 31.9011 -82.6844 327° Northwest 102 117 8,500  Level Jacksonville Center
Sat 02:29:17 PM 31.9283 -82.7017 332° Northwest 102 117 8,500  Level Jacksonville Center
Sat 02:30:17 PM 31.9514 -82.7164 332° Northwest 96 110 8,500  Level Jacksonville Center
Sat 02:31:17 PM 31.9806 -82.7333 334° Northwest 102 117 8,500  Level Jacksonville Center
Sat 02:32:17 PM 32.0058 -82.7531 327° Northwest 102 117 8,500  Level Jacksonville Center
Sat 02:33:17 PM 32.0308 -82.7725 327° Northwest 102 117 8,500 50 Level Jacksonville Center
Sat 02:34:17 PM 32.0581 -82.7872 335° Northwest 102 117 8,600  Climbing Jacksonville Center
Sat 02:35:17 PM 32.0850 -82.8067 329° Northwest 102 117 8,500 -50 Descending Jacksonville Center
Sat 02:36:17 PM 32.1103 -82.8239 330° Northwest 102 117 8,500  Level Jacksonville Center
Sat 02:38:24 PM 32.1667 -82.8667 327° Northwest 109 125 8,500  Level Atlanta TRACON
Sat 02:39:18 PM 32.2000 -82.8833 337° Northwest 109 125 8,500  Level Atlanta TRACON
Sat 02:40:24 PM 32.2167 -82.9000 320° Northwest 106 122 8,500  Level Atlanta TRACON
Sat 02:41:18 PM 32.2500 -82.9167 337° Northwest 110 127 8,500  Level Atlanta TRACON
Sat 02:42:24 PM 32.2667 -82.9333 320° Northwest 104 120 8,500  Level Atlanta TRACON
Sat 02:43:18 PM 32.3000 -82.9500 337° Northwest 110 127 8,500  Level Atlanta TRACON
Sat 02:44:18 PM 32.3167 -82.9667 320° Northwest 109 125 8,500  Level Atlanta TRACON
Sat 02:45:24 PM 32.3500 -82.9833 337° Northwest 108 124 8,500  Level Atlanta TRACON
Sat 02:46:18 PM 32.3833 -83.0000 337° Northwest 101 116 8,500  Level Atlanta TRACON
Sat 02:47:24 PM 32.4000 -83.0167 320° Northwest 112 129 8,500 100 Level Atlanta TRACON
Sat 02:48:18 PM 32.4333 -83.0333 337° Northwest 123 142 8,700  Climbing Atlanta TRACON
Sat 02:49:18 PM 32.4500 -83.0500 320° Northwest 105 121 8,500 -100 Descending Atlanta TRACON
Sat 02:50:18 PM 32.4833 -83.0667 337° Northwest 117 135 8,500  Level Atlanta TRACON
Sat 02:51:18 PM 32.5167 -83.0833 337° Northwest 112 129 8,500  Level Atlanta TRACON
Sat 02:52:13 PM 32.5333 -83.1000 320° Northwest 114 131 8,500  Level Atlanta TRACON
Sat 02:53:13 PM 32.5667 -83.1167 337° Northwest 117 135 8,500  Level Atlanta TRACON
Sat 02:54:19 PM 32.6000 -83.1333 337° Northwest 111 128 8,500  Level Atlanta TRACON
Sat 02:55:18 PM 32.6167 -83.1500 320° Northwest 108 124 8,500  Level Atlanta TRACON
Sat 02:56:18 PM 32.6500 -83.1667 337° Northwest 112 129 8,500  Level Atlanta TRACON
Sat 02:57:18 PM 32.6833 -83.1833 337° Northwest 111 128 8,500 50 Level Atlanta TRACON
Sat 02:58:19 PM 32.7000 -83.2000 320° Northwest 108 124 8,600  Climbing Atlanta TRACON
Sat 02:59:19 PM 32.7333 -83.2167 337° Northwest 112 129 8,500 -95 Descending Atlanta TRACON
Sat 03:00:25 PM 32.7667 -83.2167 360° North 111 128 8,400 -48 Descending Atlanta TRACON
Sat 03:01:25 PM 32.8000 -83.2333 337° Northwest 111 128 8,400  Level Atlanta TRACON
Sat 03:02:19 PM 32.8167 -83.2500 320° Northwest 111 128 8,400 -158 Level Atlanta TRACON
Sat 03:03:19 PM 32.8500 -83.2667 337° Northwest 121 139 8,100 -381 Descending Atlanta TRACON
Sat 03:04:25 PM 32.8833 -83.2833 337° Northwest 120 138 7,600 -476 Descending Atlanta TRACON
Sat 03:05:25 PM 32.9167 -83.3000 337° Northwest 121 139 7,100 -750 Descending Atlanta TRACON
Sat 03:06:25 PM 32.9500 -83.3167 337° Northwest 121 139 6,100 -900 Descending Atlanta TRACON
Sat 03:07:25 PM 32.9667 -83.3333 320° Northwest 125 144 5,300 -700 Descending Atlanta TRACON
Sat 03:08:25 PM 33.0000 -83.3500 337° Northwest 120 138 4,700 -474 Descending Atlanta TRACON
Sat 03:09:19 PM 33.0333 -83.3667 337° Northwest 111 128 4,400 -150 Descending Atlanta TRACON
Sat 03:10:25 PM 33.0667 -83.3833 337° Northwest 112 129 4,400  Level Atlanta TRACON
Sat 03:11:19 PM 33.0833 -83.4000 320° Northwest 109 125 4,400  Level Atlanta TRACON
Sat 03:12:19 PM 33.1167 -83.4167 337° Northwest 118 136 4,400  Level Atlanta TRACON
Sat 03:13:19 PM 33.1333 -83.4333 320° Northwest 116 133 4,400  Level Atlanta TRACON
Sat 03:14:19 PM 33.1667 -83.4500 337° Northwest 118 136 4,400  Level Atlanta TRACON
Sat 03:15:13 PM 33.2000 -83.4667 337° Northwest 116 133 4,400  Level Atlanta TRACON
Sat 03:16:19 PM 33.2333 -83.4833 337° Northwest 118 136 4,400 -143 Level Atlanta TRACON
Sat 03:17:19 PM 33.2500 -83.5000 320° Northwest 125 144 4,100 -200 Descending Atlanta TRACON
Sat 03:18:19 PM 33.2833 -83.5167 337° Northwest 119 137 4,000 -50 Descending Atlanta TRACON
Sat 03:19:19 PM 33.3167 -83.5167 360° North 114 131 4,000  Level Atlanta TRACON
Sat 03:20:13 PM 33.3500 -83.5333 337° Northwest 114 131 4,000  Level Atlanta TRACON
Sat 03:21:13 PM 33.3667 -83.5500 320° Northwest 122 140 4,000  Level Atlanta TRACON
Sat 03:22:13 PM 33.4000 -83.5667 337° Northwest 115 132 4,000  Level Atlanta TRACON
Sat 03:23:13 PM 33.4333 -83.5833 337° Northwest 115 132 4,000 -211 Level Atlanta TRACON
Sat 03:24:07 PM 33.4500 -83.6000 320° Northwest 116 133 3,600 -444 Descending Atlanta TRACON
Sat 03:26:00 PM 33.4668 -83.6670 287° West  Level FlightAware Approximate
Sat 03:33:00 PM 33.6167 -83.8333 320° Northwest  Level FlightAware Approximate
Sat 03:34:00 PM 33.6323 -83.8475 320° Northwest  Level Estimated
Sat 03:35:00 PM 33.6323 -83.8475 320° Northwest  Level Estimated
Sat 03:36:00 PM 33.6323 -83.8475 320° Northwest  Level Estimated
Sat 03:37:00 PM 33.6323 -83.8475 320° Northwest  Level Estimated
Sat 03:38:00 PM 33.6323 -83.8475 320° Northwest  Level Estimated
Sat 03:39:00 PM 33.6323 -83.8475 320° Northwest  Level Estimated
Sat 03:40:00 PM 33.6323 -83.8475 320° Northwest  Level Estimated
Sat 03:41:00 PM 33.6323 -83.8475 320° Northwest  Level Estimated
Sat 03:42:00 PM 33.6323 -83.8475 320° Northwest  Level Estimated
Sat 03:43:00 PM 33.6323 -83.8475 320° Northwest  Level Estimated
Sat 03:44:00 PM 33.6323 -83.8475 320° Northwest  Level Estimated
Sat 03:45:00 PM 33.6323 -83.8475 320° Northwest  Level Estimated
Sat 03:46:00 PM 33.6323 -83.8475 320° Northwest  Level Estimated
Sat 03:47:00 PM 33.6323 -83.8475 320° Northwest  Level Estimated
Sat 03:48:00 PM 33.6323 -83.8475 320° Northwest  Level Estimated

Login

Don't have an account? Register now (free) for customized features, flight alerts, and more!